Time,TemperatureF,DewpointF,PressureIn,WindDirection,WindDirectionDegrees,WindSpeedMPH,WindSpeedGustMPH,Humidity,HourlyPrecipIn,Conditions,Clouds,dailyrainin,SoftwareType,DateUTC
2013-01-08 07:47:00,22.5,14.2,29.15,West,262,0.0,0.0,70,0.00,,CLR,0.00,VWS V14.01,2013-01-08 12:47:00,
2013-01-08 07:48:00,22.5,14.2,29.15,West,262,0.0,0.0,70,0.00,,CLR,0.00,VWS V14.01,2013-01-08 12:48:00,
2013-01-08 07:49:00,22.3,14.0,29.15,West,262,0.0,0.0,70,0.00,,CLR,0.00,VWS V14.01,2013-01-08 12:49:00,
2013-01-08 07:54:00,22.5,14.2,29.15,West,262,0.0,0.0,70,0.00,,CLR,0.00,VWS V14.01,2013-01-08 12:54:00,
2013-01-08 07:59:00,22.3,14.0,29.15,West,262,0.0,0.0,70,0.00,,CLR,0.00,VWS V14.01,2013-01-08 12:59:00,
2013-01-08 08:04:00,22.5,14.2,29.15,West,262,0.0,0.0,70,0.00,,CLR,0.00,VWS V14.01,2013-01-08 13:04:00,
2013-01-08 08:09:00,22.8,14.8,29.15,West,262,0.0,0.0,71,0.00,,CLR,0.00,VWS V14.01,2013-01-08 13:09:00,
2013-01-08 08:14:00,23.0,15.0,29.15,West,262,0.0,0.0,71,0.00,,CLR,0.00,VWS V14.01,2013-01-08 13:14:00,
2013-01-08 08:19:00,23.4,15.0,29.15,West,262,0.0,0.0,70,0.00,,CLR,0.00,VWS V14.01,2013-01-08 13:19:00,
2013-01-08 08:24:00,23.4,15.0,29.15,West,262,0.0,0.0,70,0.00,,CLR,0.00,VWS V14.01,2013-01-08 13:24:00,
2013-01-08 08:29:00,23.4,15.0,29.15,West,262,0.0,0.0,70,0.00,,CLR,0.00,VWS V14.01,2013-01-08 13:29:00,
2013-01-08 08:35:00,24.1,16.0,29.15,West,262,0.0,0.0,71,0.00,,CLR,0.00,VWS V14.01,2013-01-08 13:35:00,
2013-01-08 08:40:00,24.8,16.8,29.15,West,262,0.0,0.0,71,0.00,,CLR,0.00,VWS V14.01,2013-01-08 13:40:00,
2013-01-08 08:45:00,25.2,16.8,29.15,West,262,0.0,0.0,70,0.00,,CLR,0.00,VWS V14.01,2013-01-08 13:45:00,
2013-01-08 08:50:00,25.2,16.8,29.15,West,262,0.0,0.0,70,0.00,,CLR,0.00,VWS V14.01,2013-01-08 13:50:00,
2013-01-08 08:55:00,26.4,15.9,29.15,West,262,0.0,0.0,64,0.00,,CLR,0.00,VWS V14.01,2013-01-08 13:55:00,
2013-01-08 09:00:00,27.0,16.4,29.15,West,262,0.0,0.0,64,0.00,,CLR,0.00,VWS V14.01,2013-01-08 14:00:00,
2013-01-08 09:05:00,27.7,16.7,29.15,West,262,0.0,0.0,63,0.00,,CLR,0.00,VWS V14.01,2013-01-08 14:05:00,
2013-01-08 09:10:00,28.0,16.7,29.15,West,262,0.0,0.0,62,0.00,,CLR,0.00,VWS V14.01,2013-01-08 14:10:00,
2013-01-08 09:15:00,28.8,15.9,29.15,West,262,0.0,0.0,58,0.00,,CLR,0.00,VWS V14.01,2013-01-08 14:15:00,
2013-01-08 09:20:00,29.5,15.7,29.15,West,262,0.0,0.0,56,0.00,,CLR,0.00,VWS V14.01,2013-01-08 14:20:00,
2013-01-08 09:25:00,30.4,16.6,29.15,West,262,0.0,0.0,56,0.00,,CLR,0.00,VWS V14.01,2013-01-08 14:25:00,
2013-01-08 09:30:00,31.1,16.8,29.15,West,262,0.0,0.0,55,0.00,,CLR,0.00,VWS V14.01,2013-01-08 14:30:00,
2013-01-08 09:35:00,31.8,16.6,29.15,ESE,120,0.0,0.0,53,0.00,,CLR,0.00,VWS V14.01,2013-01-08 14:35:00,
2013-01-08 09:41:00,32.5,16.4,29.15,ESE,108,0.0,0.0,51,0.00,,CLR,0.00,VWS V14.01,2013-01-08 14:41:00,
2013-01-08 09:46:00,32.9,16.8,29.15,ESE,108,0.0,0.0,51,0.00,,CLR,0.00,VWS V14.01,2013-01-08 14:46:00,
2013-01-08 09:51:00,33.4,15.4,29.15,ESE,108,0.0,0.0,47,0.00,,CLR,0.00,VWS V14.01,2013-01-08 14:51:00,
2013-01-08 09:56:00,34.3,15.2,29.15,ESE,108,0.0,0.0,45,0.00,,CLR,0.00,VWS V14.01,2013-01-08 14:56:00,
2013-01-08 10:01:00,35.1,15.9,29.18,NE,43,0.0,0.0,45,0.00,,CLR,0.00,VWS V14.01,2013-01-08 15:01:00,
2013-01-08 10:06:00,36.0,15.6,29.18,East,96,0.0,0.0,43,0.00,,CLR,0.00,VWS V14.01,2013-01-08 15:06:00,
2013-01-08 10:11:00,36.3,15.4,29.18,NNE,28,3.1,3.1,42,0.00,,CLR,0.00,VWS V14.01,2013-01-08 15:11:00,
2013-01-08 10:16:00,37.0,15.5,29.18,NNE,28,3.1,3.1,41,0.00,,CLR,0.00,VWS V14.01,2013-01-08 15:16:00,
2013-01-08 10:21:00,37.8,15.6,29.18,ESE,108,0.0,3.1,40,0.00,,CLR,0.00,VWS V14.01,2013-01-08 15:21:00,
2013-01-08 10:26:00,38.7,16.4,29.18,ESE,108,0.0,0.0,40,0.00,,CLR,0.00,VWS V14.01,2013-01-08 15:26:00,
2013-01-08 10:31:00,38.3,16.1,29.15,NNW,337,3.1,3.1,40,0.00,,CLR,0.00,VWS V14.01,2013-01-08 15:31:00,
2013-01-08 10:36:00,38.3,16.1,29.15,ENE,70,2.7,2.7,40,0.00,,CLR,0.00,VWS V14.01,2013-01-08 15:36:00,
2013-01-08 10:41:00,38.8,16.6,29.15,NE,55,2.2,2.2,40,0.00,,CLR,0.00,VWS V14.01,2013-01-08 15:41:00,
2013-01-08 10:46:00,40.6,17.6,29.15,SSW,195,3.1,3.1,39,0.00,,CLR,0.00,VWS V14.01,2013-01-08 15:46:00,
2013-01-08 10:51:00,41.2,16.9,29.15,ENE,65,2.7,2.7,37,0.00,,CLR,0.00,VWS V14.01,2013-01-08 15:51:00,
2013-01-08 10:57:00,41.7,17.4,29.15,East,79,3.1,3.1,37,0.00,,CLR,0.00,VWS V14.01,2013-01-08 15:57:00,
2013-01-08 11:02:00,42.8,17.7,29.15,SSE,149,0.0,0.0,36,0.00,,CLR,0.00,VWS V14.01,2013-01-08 16:02:00,
2013-01-08 11:07:00,43.5,18.4,29.15,SSE,149,0.0,0.0,36,0.00,,CLR,0.00,VWS V14.01,2013-01-08 16:07:00,
2013-01-08 11:12:00,43.9,18.0,29.15,SE,125,0.0,0.0,35,0.00,,CLR,0.00,VWS V14.01,2013-01-08 16:12:00,
2013-01-08 11:17:00,43.7,17.2,29.12,ENE,62,3.1,3.1,34,0.00,,CLR,0.00,VWS V14.01,2013-01-08 16:17:00,
2013-01-08 11:22:00,44.2,17.7,29.12,East,91,3.1,3.1,34,0.00,,CLR,0.00,VWS V14.01,2013-01-08 16:22:00,
2013-01-08 11:27:00,43.3,16.9,29.12,NNE,28,3.1,3.1,34,0.00,,CLR,0.00,VWS V14.01,2013-01-08 16:27:00,
2013-01-08 11:32:00,44.2,17.0,29.12,NW,321,0.0,0.0,33,0.00,,CLR,0.00,VWS V14.01,2013-01-08 16:32:00,
2013-01-08 11:37:00,45.3,17.2,29.12,ENE,77,0.0,0.0,32,0.00,,CLR,0.00,VWS V14.01,2013-01-08 16:37:00,
2013-01-08 11:42:00,46.2,18.7,29.12,SSW,203,0.0,0.0,33,0.00,,CLR,0.00,VWS V14.01,2013-01-08 16:42:00,
2013-01-08 11:47:00,47.7,19.3,29.12,SW,231,2.7,2.7,32,0.00,,CLR,0.00,VWS V14.01,2013-01-08 16:47:00,
2013-01-08 11:52:00,48.7,17.9,29.12,SW,229,0.0,0.0,29,0.00,,CLR,0.00,VWS V14.01,2013-01-08 16:52:00,
2013-01-08 11:57:00,47.8,17.9,29.12,NE,40,2.7,2.7,30,0.00,,CLR,0.00,VWS V14.01,2013-01-08 16:57:00,
2013-01-08 12:02:00,48.2,17.5,29.12,NNE,17,0.0,0.0,29,0.00,,CLR,0.00,VWS V14.01,2013-01-08 17:02:00,
2013-01-08 12:08:00,48.0,18.1,29.12,NNE,30,0.0,0.0,30,0.00,,CLR,0.00,VWS V14.01,2013-01-08 17:08:00,
2013-01-08 12:13:00,48.2,18.2,29.12,NE,55,0.0,0.0,30,0.00,,CLR,0.00,VWS V14.01,2013-01-08 17:13:00,
2013-01-08 12:18:00,48.9,18.1,29.09,ENE,77,0.0,3.6,29,0.00,,CLR,0.00,VWS V14.01,2013-01-08 17:18:00,
2013-01-08 12:23:00,49.1,18.2,29.09,East,97,0.0,0.0,29,0.00,,CLR,0.00,VWS V14.01,2013-01-08 17:23:00,
2013-01-08 12:28:00,49.3,18.4,29.09,East,92,2.7,2.7,29,0.00,,CLR,0.00,VWS V14.01,2013-01-08 17:28:00,
2013-01-08 12:33:00,49.3,18.4,29.09,NNE,15,0.0,3.1,29,0.00,,CLR,0.00,VWS V14.01,2013-01-08 17:33:00,
2013-01-08 12:38:00,48.9,18.1,29.09,East,85,3.1,3.1,29,0.00,,CLR,0.00,VWS V14.01,2013-01-08 17:38:00,
2013-01-08 12:43:00,49.8,18.9,29.09,ESE,113,2.2,2.2,29,0.00,,CLR,0.00,VWS V14.01,2013-01-08 17:43:00,
2013-01-08 12:48:00,49.6,17.9,29.09,NNE,32,4.0,4.0,28,0.00,,CLR,0.00,VWS V14.01,2013-01-08 17:48:00,
2013-01-08 12:53:00,49.3,17.6,29.09,NNE,22,3.6,3.6,28,0.00,,CLR,0.00,VWS V14.01,2013-01-08 17:53:00,
2013-01-08 12:58:00,49.1,18.2,29.09,East,86,2.2,2.2,29,0.00,,CLR,0.00,VWS V14.01,2013-01-08 17:58:00,
2013-01-08 13:03:00,49.6,17.9,29.09,East,97,2.7,2.7,28,0.00,,CLR,0.00,VWS V14.01,2013-01-08 18:03:00,
2013-01-08 13:08:00,50.0,18.2,29.09,East,98,2.7,2.7,28,0.00,,CLR,0.00,VWS V14.01,2013-01-08 18:08:00,
2013-01-08 13:13:00,50.2,18.4,29.09,NE,39,2.7,2.7,28,0.00,,CLR,0.00,VWS V14.01,2013-01-08 18:13:00,
2013-01-08 13:18:00,50.2,18.4,29.09,NNE,30,3.6,4.0,28,0.00,,CLR,0.00,VWS V14.01,2013-01-08 18:18:00,
2013-01-08 13:23:00,50.4,18.5,29.09,NNE,25,2.7,2.7,28,0.00,,CLR,0.00,VWS V14.01,2013-01-08 18:23:00,
2013-01-08 13:28:00,50.2,18.4,29.09,NE,44,2.7,2.7,28,0.00,,CLR,0.00,VWS V14.01,2013-01-08 18:28:00,
2013-01-08 13:33:00,50.4,18.5,29.06,NE,41,3.6,3.6,28,0.00,,CLR,0.00,VWS V14.01,2013-01-08 18:33:00,
2013-01-08 13:38:00,50.5,18.7,29.06,NE,35,4.0,4.0,28,0.00,,CLR,0.00,VWS V14.01,2013-01-08 18:38:00,
2013-01-08 13:43:00,50.5,18.7,29.06,ENE,68,0.0,3.6,28,0.00,,CLR,0.00,VWS V14.01,2013-01-08 18:43:00,
2013-01-08 13:48:00,50.5,18.7,29.06,NNE,14,2.2,2.2,28,0.00,,CLR,0.00,VWS V14.01,2013-01-08 18:48:00,
2013-01-08 13:53:00,50.7,18.8,29.06,NNE,14,2.2,2.2,28,0.00,,CLR,0.00,VWS V14.01,2013-01-08 18:53:00,
2013-01-08 13:58:00,51.1,19.1,29.06,NE,43,2.2,2.2,28,0.00,,CLR,0.00,VWS V14.01,2013-01-08 18:58:00,
2013-01-08 14:03:00,51.1,19.1,29.06,NNW,340,0.0,0.0,28,0.00,,CLR,0.00,VWS V14.01,2013-01-08 19:03:00,
2013-01-08 14:08:00,52.0,19.1,29.06,ENE,59,0.0,0.0,27,0.00,,CLR,0.00,VWS V14.01,2013-01-08 19:08:00,
2013-01-08 14:13:00,52.7,19.7,29.06,ESE,102,2.7,2.7,27,0.00,,CLR,0.00,VWS V14.01,2013-01-08 19:13:00,
2013-01-08 14:18:00,53.1,20.0,29.09,South,190,3.6,3.6,27,0.00,,CLR,0.00,VWS V14.01,2013-01-08 19:18:00,
2013-01-08 14:23:00,54.1,20.0,29.09,SE,139,0.0,3.1,26,0.00,,CLR,0.00,VWS V14.01,2013-01-08 19:23:00,
2013-01-08 14:28:00,54.7,21.4,29.09,SSW,196,3.1,3.1,27,0.00,,CLR,0.00,VWS V14.01,2013-01-08 19:28:00,
2013-01-08 14:33:00,53.6,19.6,29.09,West,267,3.6,3.6,26,0.00,,CLR,0.00,VWS V14.01,2013-01-08 19:33:00,
2013-01-08 14:38:00,54.1,20.0,29.09,SW,225,2.2,3.6,26,0.00,,CLR,0.00,VWS V14.01,2013-01-08 19:38:00,
2013-01-08 14:43:00,53.6,19.6,29.09,NE,38,2.2,2.2,26,0.00,,CLR,0.00,VWS V14.01,2013-01-08 19:43:00,
2013-01-08 14:49:00,54.1,20.0,29.06,SSE,151,2.2,3.1,26,0.00,,CLR,0.00,VWS V14.01,2013-01-08 19:49:00,
2013-01-08 14:54:00,54.3,20.2,29.06,East,91,0.0,0.0,26,0.00,,CLR,0.00,VWS V14.01,2013-01-08 19:54:00,
2013-01-08 14:59:00,55.2,21.0,29.06,South,174,0.0,0.0,26,0.00,,CLR,0.00,VWS V14.01,2013-01-08 19:59:00,
2013-01-08 15:04:00,54.5,20.3,29.06,East,90,0.0,0.0,26,0.00,,CLR,0.00,VWS V14.01,2013-01-08 20:04:00,
2013-01-08 15:09:00,54.0,19.9,29.06,East,98,0.0,2.7,26,0.00,,CLR,0.00,VWS V14.01,2013-01-08 20:09:00,
2013-01-08 15:14:00,54.1,20.0,29.06,North,353,3.6,3.6,26,0.00,,CLR,0.00,VWS V14.01,2013-01-08 20:14:00,
2013-01-08 15:19:00,55.0,20.8,29.06,SE,132,0.0,0.0,26,0.00,,CLR,0.00,VWS V14.01,2013-01-08 20:19:00,
2013-01-08 15:24:00,55.4,20.2,29.06,SSW,199,3.1,3.1,25,0.00,,CLR,0.00,VWS V14.01,2013-01-08 20:24:00,
2013-01-08 15:29:00,55.0,20.8,29.06,SE,133,0.0,3.1,26,0.00,,CLR,0.00,VWS V14.01,2013-01-08 20:29:00,
2013-01-08 15:34:00,55.0,20.8,29.06,SE,133,0.0,0.0,26,0.00,,CLR,0.00,VWS V14.01,2013-01-08 20:34:00,
2013-01-08 15:39:00,54.5,20.3,29.06,West,280,0.0,0.0,26,0.00,,CLR,0.00,VWS V14.01,2013-01-08 20:39:00,
2013-01-08 15:44:00,54.1,20.0,29.06,North,357,0.0,0.0,26,0.00,,CLR,0.00,VWS V14.01,2013-01-08 20:44:00,
2013-01-08 15:49:00,54.1,20.0,29.06,East,81,0.0,2.7,26,0.00,,CLR,0.00,VWS V14.01,2013-01-08 20:49:00,
2013-01-08 15:54:00,54.7,20.5,29.06,North,353,0.0,0.0,26,0.00,,CLR,0.00,VWS V14.01,2013-01-08 20:54:00,
2013-01-08 15:59:00,54.7,20.5,29.06,North,357,0.0,0.0,26,0.00,,CLR,0.00,VWS V14.01,2013-01-08 20:59:00,
2013-01-08 16:04:00,54.5,20.3,29.06,ENE,57,0.0,0.0,26,0.00,,CLR,0.00,VWS V14.01,2013-01-08 21:04:00,
2013-01-08 16:09:00,54.1,20.0,29.06,ENE,57,0.0,0.0,26,0.00,,CLR,0.00,VWS V14.01,2013-01-08 21:09:00,
2013-01-08 16:14:00,54.1,20.0,29.06,NNE,17,0.0,0.0,26,0.00,,CLR,0.00,VWS V14.01,2013-01-08 21:14:00,
2013-01-08 16:19:00,54.1,20.0,29.06,NE,44,0.0,0.0,26,0.00,,CLR,0.00,VWS V14.01,2013-01-08 21:19:00,
2013-01-08 16:24:00,54.0,19.9,29.06,NE,44,0.0,0.0,26,0.00,,CLR,0.00,VWS V14.01,2013-01-08 21:24:00,
2013-01-08 16:29:00,54.0,19.9,29.06,NE,39,0.0,0.0,26,0.00,,CLR,0.00,VWS V14.01,2013-01-08 21:29:00,
2013-01-08 16:34:00,54.1,20.0,29.06,NE,39,0.0,0.0,26,0.00,,CLR,0.00,VWS V14.01,2013-01-08 21:34:00,
2013-01-08 16:39:00,54.0,19.9,29.06,NE,39,0.0,0.0,26,0.00,,CLR,0.00,VWS V14.01,2013-01-08 21:39:00,
2013-01-08 16:44:00,54.0,19.9,29.06,NE,39,0.0,0.0,26,0.00,,CLR,0.00,VWS V14.01,2013-01-08 21:44:00,
2013-01-08 16:49:00,53.6,19.6,29.06,NE,39,0.0,0.0,26,0.00,,CLR,0.00,VWS V14.01,2013-01-08 21:49:00,
2013-01-08 16:54:00,52.9,19.0,29.06,NE,39,0.0,0.0,26,0.00,,CLR,0.00,VWS V14.01,2013-01-08 21:54:00,
2013-01-08 16:59:00,52.3,19.4,29.06,NE,39,0.0,0.0,27,0.00,,CLR,0.00,VWS V14.01,2013-01-08 21:59:00,
2013-01-08 17:04:00,50.9,18.1,29.09,NE,39,0.0,0.0,27,0.00,,CLR,0.00,VWS V14.01,2013-01-08 22:04:00,
2013-01-08 17:09:00,49.5,17.7,29.09,NE,39,0.0,0.0,28,0.00,,CLR,0.00,VWS V14.01,2013-01-08 22:09:00,
2013-01-08 17:14:00,48.6,17.0,29.09,WNW,291,0.0,0.0,28,0.00,,CLR,0.00,VWS V14.01,2013-01-08 22:14:00,
2013-01-08 17:19:00,48.0,17.3,29.09,WNW,291,0.0,0.0,29,0.00,,CLR,0.00,VWS V14.01,2013-01-08 22:19:00,
2013-01-08 17:24:00,47.3,16.7,29.09,WNW,285,3.1,3.1,29,0.00,,CLR,0.00,VWS V14.01,2013-01-08 22:24:00,
2013-01-08 17:29:00,46.9,16.4,29.09,West,278,0.0,0.0,29,0.00,,CLR,0.00,VWS V14.01,2013-01-08 22:29:00,
2013-01-08 17:34:00,45.9,17.0,29.09,West,278,0.0,0.0,31,0.00,,CLR,0.00,VWS V14.01,2013-01-08 22:34:00,
2013-01-08 17:39:00,45.1,17.1,29.09,West,278,0.0,0.0,32,0.00,,CLR,0.00,VWS V14.01,2013-01-08 22:39:00,
2013-01-08 17:44:00,44.6,16.6,29.09,West,278,0.0,0.0,32,0.00,,CLR,0.00,VWS V14.01,2013-01-08 22:44:00,
2013-01-08 17:49:00,43.7,17.9,29.09,West,278,0.0,0.0,35,0.00,,CLR,0.00,VWS V14.01,2013-01-08 22:49:00,
2013-01-08 17:54:00,43.0,17.9,29.09,West,278,0.0,0.0,36,0.00,,CLR,0.00,VWS V14.01,2013-01-08 22:54:00,
2013-01-08 17:59:00,42.4,18.6,29.09,West,278,0.0,0.0,38,0.00,,CLR,0.00,VWS V14.01,2013-01-08 22:59:00,
2013-01-08 18:04:00,42.3,18.5,29.09,West,278,0.0,0.0,38,0.00,,CLR,0.00,VWS V14.01,2013-01-08 23:04:00,
2013-01-08 18:09:00,42.1,18.3,29.09,West,278,0.0,0.0,38,0.00,,CLR,0.00,VWS V14.01,2013-01-08 23:09:00,
2013-01-08 18:14:00,41.7,18.6,29.09,West,278,0.0,0.0,39,0.00,,CLR,0.00,VWS V14.01,2013-01-08 23:14:00,
2013-01-08 18:19:00,41.4,18.3,29.06,West,278,0.0,0.0,39,0.00,,CLR,0.00,VWS V14.01,2013-01-08 23:19:00,
2013-01-08 18:24:00,41.2,18.1,29.06,West,278,0.0,0.0,39,0.00,,CLR,0.00,VWS V14.01,2013-01-08 23:24:00,
2013-01-08 18:29:00,40.8,18.4,29.06,West,278,0.0,0.0,40,0.00,,CLR,0.00,VWS V14.01,2013-01-08 23:29:00,
2013-01-08 18:34:00,40.5,18.1,29.06,West,278,0.0,0.0,40,0.00,,CLR,0.00,VWS V14.01,2013-01-08 23:34:00,
2013-01-08 18:39:00,40.3,17.9,29.06,West,278,0.0,0.0,40,0.00,,CLR,0.00,VWS V14.01,2013-01-08 23:39:00,
2013-01-08 18:44:00,39.9,17.6,29.06,West,278,0.0,0.0,40,0.00,,CLR,0.00,VWS V14.01,2013-01-08 23:44:00,
2013-01-08 18:49:00,39.7,18.0,29.09,West,278,0.0,0.0,41,0.00,,CLR,0.00,VWS V14.01,2013-01-08 23:49:00,
2013-01-08 18:54:00,39.7,17.4,29.09,West,278,0.0,0.0,40,0.00,,CLR,0.00,VWS V14.01,2013-01-08 23:54:00,
2013-01-08 18:59:00,39.4,17.7,29.09,West,278,0.0,0.0,41,0.00,,CLR,0.00,VWS V14.01,2013-01-08 23:59:00,
2013-01-08 19:04:00,39.2,17.5,29.09,West,278,0.0,0.0,41,0.00,,CLR,0.00,VWS V14.01,2013-01-09 00:04:00,
2013-01-08 19:09:00,38.7,17.0,29.09,West,278,0.0,0.0,41,0.00,,CLR,0.00,VWS V14.01,2013-01-09 00:09:00,
2013-01-08 19:14:00,38.5,17.4,29.09,West,278,0.0,0.0,42,0.00,,CLR,0.00,VWS V14.01,2013-01-09 00:14:00,
2013-01-08 19:19:00,38.1,17.1,29.09,West,278,0.0,0.0,42,0.00,,CLR,0.00,VWS V14.01,2013-01-09 00:19:00,
2013-01-08 19:24:00,37.8,16.8,29.09,West,278,0.0,0.0,42,0.00,,CLR,0.00,VWS V14.01,2013-01-09 00:24:00,
2013-01-08 19:29:00,37.4,17.5,29.09,West,278,0.0,0.0,44,0.00,,CLR,0.00,VWS V14.01,2013-01-09 00:29:00,
2013-01-08 19:34:00,37.0,17.7,29.09,West,278,0.0,0.0,45,0.00,,CLR,0.00,VWS V14.01,2013-01-09 00:34:00,
2013-01-08 19:39:00,37.0,17.7,29.09,West,278,0.0,0.0,45,0.00,,CLR,0.00,VWS V14.01,2013-01-09 00:39:00,
2013-01-08 19:44:00,37.0,17.7,29.09,West,278,0.0,0.0,45,0.00,,CLR,0.00,VWS V14.01,2013-01-09 00:44:00,
2013-01-08 19:49:00,36.7,17.4,29.09,West,278,0.0,0.0,45,0.00,,CLR,0.00,VWS V14.01,2013-01-09 00:49:00,
2013-01-08 19:54:00,36.9,17.5,29.09,West,278,0.0,0.0,45,0.00,,CLR,0.00,VWS V14.01,2013-01-09 00:54:00,
2013-01-08 19:59:00,36.9,18.0,29.09,West,278,0.0,0.0,46,0.00,,CLR,0.00,VWS V14.01,2013-01-09 00:59:00,
2013-01-08 20:04:00,36.5,17.7,29.09,West,278,0.0,0.0,46,0.00,,CLR,0.00,VWS V14.01,2013-01-09 01:04:00,
2013-01-08 20:09:00,36.3,18.0,29.09,West,278,0.0,0.0,47,0.00,,CLR,0.00,VWS V14.01,2013-01-09 01:09:00,
2013-01-08 20:14:00,36.1,18.8,29.09,West,278,0.0,0.0,49,0.00,,CLR,0.00,VWS V14.01,2013-01-09 01:14:00,
2013-01-08 20:20:00,36.3,18.5,29.09,West,278,0.0,0.0,48,0.00,,CLR,0.00,VWS V14.01,2013-01-09 01:20:00,
2013-01-08 20:25:00,36.5,18.2,29.09,West,278,0.0,0.0,47,0.00,,CLR,0.00,VWS V14.01,2013-01-09 01:25:00,
2013-01-08 20:30:00,35.8,18.0,29.09,West,278,0.0,0.0,48,0.00,,CLR,0.00,VWS V14.01,2013-01-09 01:30:00,
2013-01-08 20:35:00,35.6,18.3,29.09,West,278,0.0,0.0,49,0.00,,CLR,0.00,VWS V14.01,2013-01-09 01:35:00,
2013-01-08 20:40:00,35.4,19.1,29.09,West,278,0.0,0.0,51,0.00,,CLR,0.00,VWS V14.01,2013-01-09 01:40:00,
2013-01-08 20:45:00,35.2,18.9,29.09,West,278,0.0,0.0,51,0.00,,CLR,0.00,VWS V14.01,2013-01-09 01:45:00,
2013-01-08 20:50:00,34.9,18.6,29.09,West,278,0.0,0.0,51,0.00,,CLR,0.00,VWS V14.01,2013-01-09 01:50:00,
2013-01-08 20:55:00,34.3,18.1,29.09,West,278,0.0,0.0,51,0.00,,CLR,0.00,VWS V14.01,2013-01-09 01:55:00,
2013-01-08 21:00:00,34.3,18.5,29.09,West,278,0.0,0.0,52,0.00,,CLR,0.00,VWS V14.01,2013-01-09 02:00:00,
2013-01-08 21:05:00,34.2,18.4,29.09,West,278,0.0,0.0,52,0.00,,CLR,0.00,VWS V14.01,2013-01-09 02:05:00,
2013-01-08 21:10:00,34.0,18.7,29.09,West,278,0.0,0.0,53,0.00,,CLR,0.00,VWS V14.01,2013-01-09 02:10:00,
2013-01-08 21:15:00,34.0,18.7,29.09,West,278,0.0,0.0,53,0.00,,CLR,0.00,VWS V14.01,2013-01-09 02:15:00,
2013-01-08 21:20:00,34.0,18.7,29.09,West,278,0.0,0.0,53,0.00,,CLR,0.00,VWS V14.01,2013-01-09 02:20:00,
2013-01-08 21:25:00,33.8,18.5,29.09,West,278,0.0,0.0,53,0.00,,CLR,0.00,VWS V14.01,2013-01-09 02:25:00,
2013-01-08 21:30:00,33.6,18.8,29.09,West,278,0.0,0.0,54,0.00,,CLR,0.00,VWS V14.01,2013-01-09 02:30:00,
2013-01-08 21:35:00,33.4,18.6,29.12,West,278,0.0,0.0,54,0.00,,CLR,0.00,VWS V14.01,2013-01-09 02:35:00,
2013-01-08 21:40:00,33.6,18.8,29.12,West,278,0.0,0.0,54,0.00,,CLR,0.00,VWS V14.01,2013-01-09 02:40:00,
2013-01-08 21:45:00,33.6,18.8,29.12,West,278,0.0,0.0,54,0.00,,CLR,0.00,VWS V14.01,2013-01-09 02:45:00,
2013-01-08 21:50:00,34.0,18.7,29.12,West,278,0.0,0.0,53,0.00,,CLR,0.00,VWS V14.01,2013-01-09 02:50:00,
2013-01-08 21:55:00,33.6,18.3,29.12,West,278,0.0,0.0,53,0.00,,CLR,0.00,VWS V14.01,2013-01-09 02:55:00,
2013-01-08 22:00:00,33.3,18.4,29.12,West,278,0.0,0.0,54,0.00,,CLR,0.00,VWS V14.01,2013-01-09 03:00:00,
2013-01-08 22:05:00,32.9,18.5,29.12,West,278,0.0,0.0,55,0.00,,CLR,0.00,VWS V14.01,2013-01-09 03:05:00,
2013-01-08 22:10:00,32.7,18.8,29.12,West,278,0.0,0.0,56,0.00,,CLR,0.00,VWS V14.01,2013-01-09 03:10:00,
2013-01-08 22:15:00,32.7,19.2,29.12,West,278,0.0,0.0,57,0.00,,CLR,0.00,VWS V14.01,2013-01-09 03:15:00,
2013-01-08 22:20:00,32.7,19.2,29.12,West,278,0.0,0.0,57,0.00,,CLR,0.00,VWS V14.01,2013-01-09 03:20:00,
2013-01-08 22:25:00,32.7,19.6,29.12,West,278,0.0,0.0,58,0.00,,CLR,0.00,VWS V14.01,2013-01-09 03:25:00,
2013-01-08 22:30:00,32.7,19.6,29.12,SW,218,0.0,2.7,58,0.00,,CLR,0.00,VWS V14.01,2013-01-09 03:30:00,
2013-01-08 22:35:00,32.4,19.2,29.12,SW,218,2.2,2.2,58,0.00,,CLR,0.00,VWS V14.01,2013-01-09 03:35:00,
2013-01-08 22:40:00,32.4,19.2,29.12,SW,218,0.0,0.0,58,0.00,,CLR,0.00,VWS V14.01,2013-01-09 03:40:00,
2013-01-08 22:45:00,32.2,19.1,29.12,SW,218,0.0,0.0,58,0.00,,CLR,0.00,VWS V14.01,2013-01-09 03:45:00,
2013-01-08 22:50:00,32.0,18.9,29.12,SW,218,0.0,0.0,58,0.00,,CLR,0.00,VWS V14.01,2013-01-09 03:50:00,
2013-01-08 22:56:00,32.0,18.9,29.12,NNW,329,0.0,0.0,58,0.00,,CLR,0.00,VWS V14.01,2013-01-09 03:56:00,
2013-01-08 23:01:00,31.8,18.7,29.12,NNW,329,0.0,0.0,58,0.00,,CLR,0.00,VWS V14.01,2013-01-09 04:01:00,